sensor_id;sensor_type;location;lat;lon;timestamp;pressure;altitude;pressure_sealevel;temperature;humidity
51452;BME280;37521;52.020;-1.740;2023-03-19T00:00:18;99432.97;;;4.19;100.00
51452;BME280;37521;52.020;-1.740;2023-03-19T00:02:46;99434.78;;;4.17;100.00
51452;BME280;37521;52.020;-1.740;2023-03-19T00:05:17;99434.78;;;4.17;100.00
51452;BME280;37521;52.020;-1.740;2023-03-19T00:07:45;99415.75;;;4.12;100.00
51452;BME280;37521;52.020;-1.740;2023-03-19T00:10:13;99420.31;;;4.05;100.00
51452;BME280;37521;52.020;-1.740;2023-03-19T00:12:42;99432.47;;;4.06;100.00
51452;BME280;37521;52.020;-1.740;2023-03-19T00:15:10;99423.03;;;4.02;100.00
51452;BME280;37521;52.020;-1.740;2023-03-19T00:17:41;99421.34;;;4.00;100.00
51452;BME280;37521;52.020;-1.740;2023-03-19T00:20:11;99417.13;;;3.94;100.00
51452;BME280;37521;52.020;-1.740;2023-03-19T00:22:41;99419.06;;;3.88;100.00
51452;BME280;37521;52.020;-1.740;2023-03-19T00:25:09;99421.69;;;3.88;100.00
51452;BME280;37521;52.020;-1.740;2023-03-19T00:27:37;99421.69;;;3.88;100.00
51452;BME280;37521;52.020;-1.740;2023-03-19T00:30:06;99425.19;;;3.87;100.00
51452;BME280;37521;52.020;-1.740;2023-03-19T00:32:34;99433.13;;;3.83;100.00
51452;BME280;37521;52.020;-1.740;2023-03-19T00:35:05;99432.34;;;3.81;100.00
51452;BME280;37521;52.020;-1.740;2023-03-19T00:37:34;99429.84;;;3.77;100.00
51452;BME280;37521;52.020;-1.740;2023-03-19T00:40:04;99439.50;;;3.73;100.00
51452;BME280;37521;52.020;-1.740;2023-03-19T00:42:33;99436.97;;;3.70;100.00
51452;BME280;37521;52.020;-1.740;2023-03-19T00:45:01;99433.53;;;3.70;100.00
51452;BME280;37521;52.020;-1.740;2023-03-19T00:47:32;99432.56;;;3.72;100.00
51452;BME280;37521;52.020;-1.740;2023-03-19T00:50:00;99433.53;;;3.70;100.00
51452;BME280;37521;52.020;-1.740;2023-03-19T00:52:30;99436.13;;;3.70;100.00
51452;BME280;37521;52.020;-1.740;2023-03-19T00:54:58;99438.75;;;3.70;100.00
51452;BME280;37521;52.020;-1.740;2023-03-19T00:57:26;99442.16;;;3.72;100.00
51452;BME280;37521;52.020;-1.740;2023-03-19T00:59:54;99437.88;;;3.69;100.00
51452;BME280;37521;52.020;-1.740;2023-03-19T01:02:22;99452.81;;;3.64;100.00
51452;BME280;37521;52.020;-1.740;2023-03-19T01:04:51;99465.16;;;3.58;100.00
51452;BME280;37521;52.020;-1.740;2023-03-19T01:07:19;99462.59;;;3.56;100.00
51452;BME280;37521;52.020;-1.740;2023-03-19T01:09:49;99467.91;;;3.53;100.00
51452;BME280;37521;52.020;-1.740;2023-03-19T01:12:18;99480.22;;;3.48;100.00
51452;BME280;37521;52.020;-1.740;2023-03-19T01:14:46;99482.00;;;3.46;100.00
51452;BME280;37521;52.020;-1.740;2023-03-19T01:17:15;99483.97;;;3.38;100.00
51452;BME280;37521;52.020;-1.740;2023-03-19T01:19:43;99484.00;;;3.36;100.00
51452;BME280;37521;52.020;-1.740;2023-03-19T01:22:11;99485.75;;;3.36;100.00
51452;BME280;37521;52.020;-1.740;2023-03-19T01:24:46;99473.63;;;3.35;100.00
51452;BME280;37521;52.020;-1.740;2023-03-19T01:27:16;99495.34;;;3.34;100.00
51452;BME280;37521;52.020;-1.740;2023-03-19T01:29:44;99491.19;;;3.26;100.00
51452;BME280;37521;52.020;-1.740;2023-03-19T01:32:18;99493.88;;;3.23;100.00
51452;BME280;37521;52.020;-1.740;2023-03-19T01:35:05;99489.63;;;3.19;100.00
51452;BME280;37521;52.020;-1.740;2023-03-19T01:37:34;99504.53;;;3.14;100.00
51452;BME280;37521;52.020;-1.740;2023-03-19T01:40:03;99519.41;;;3.11;100.00
51452;BME280;37521;52.020;-1.740;2023-03-19T01:42:33;99508.16;;;3.09;100.00
51452;BME280;37521;52.020;-1.740;2023-03-19T01:45:32;99513.56;;;3.01;100.00
51452;BME280;37521;52.020;-1.740;2023-03-19T01:48:25;99502.44;;;2.93;100.00
51452;BME280;37521;52.020;-1.740;2023-03-19T01:51:01;99518.13;;;2.91;100.00
51452;BME280;37521;52.020;-1.740;2023-03-19T01:53:52;99536.56;;;2.84;100.00
51452;BME280;37521;52.020;-1.740;2023-03-19T01:56:43;99529.75;;;2.77;100.00
51452;BME280;37521;52.020;-1.740;2023-03-19T01:59:25;99537.59;;;2.77;100.00
51452;BME280;37521;52.020;-1.740;2023-03-19T02:02:17;99530.66;;;2.76;100.00
51452;BME280;37521;52.020;-1.740;2023-03-19T02:04:52;99527.16;;;2.77;100.00
51452;BME280;37521;52.020;-1.740;2023-03-19T02:07:23;99532.28;;;2.80;100.00
51452;BME280;37521;52.020;-1.740;2023-03-19T02:09:52;99536.47;;;2.88;100.00
51452;BME280;37521;52.020;-1.740;2023-03-19T02:12:21;99531.97;;;2.95;100.00
51452;BME280;37521;52.020;-1.740;2023-03-19T02:14:50;99529.19;;;3.03;100.00
51452;BME280;37521;52.020;-1.740;2023-03-19T02:17:19;99529.03;;;3.07;100.00
51452;BME280;37521;52.020;-1.740;2023-03-19T02:19:52;99529.03;;;3.09;100.00
51452;BME280;37521;52.020;-1.740;2023-03-19T02:22:26;99529.03;;;3.07;100.00
51452;BME280;37521;52.020;-1.740;2023-03-19T02:25:00;99529.88;;;3.09;100.00
51452;BME280;37521;52.020;-1.740;2023-03-19T02:27:31;99526.38;;;3.10;100.00
51452;BME280;37521;52.020;-1.740;2023-03-19T02:30:00;99530.94;;;3.02;100.00
51452;BME280;37521;52.020;-1.740;2023-03-19T02:32:44;99535.38;;;2.97;100.00
51452;BME280;37521;52.020;-1.740;2023-03-19T02:35:12;99524.09;;;2.96;100.00
51452;BME280;37521;52.020;-1.740;2023-03-19T02:37:40;99527.66;;;2.92;100.00
51452;BME280;37521;52.020;-1.740;2023-03-19T02:40:12;99528.69;;;2.85;100.00
51452;BME280;37521;52.020;-1.740;2023-03-19T02:42:44;99531.53;;;2.76;100.00
51452;BME280;37521;52.020;-1.740;2023-03-19T02:45:13;99528.09;;;2.72;100.00
51452;BME280;37521;52.020;-1.740;2023-03-19T02:47:42;99532.56;;;2.67;100.00
51452;BME280;37521;52.020;-1.740;2023-03-19T02:50:11;99530.97;;;2.60;100.00
51452;BME280;37521;52.020;-1.740;2023-03-19T02:52:39;99526.75;;;2.56;100.00
51452;BME280;37521;52.020;-1.740;2023-03-19T02:55:07;99530.25;;;2.55;100.00
51452;BME280;37521;52.020;-1.740;2023-03-19T02:57:35;99531.13;;;2.54;100.00
51452;BME280;37521;52.020;-1.740;2023-03-19T03:00:06;99538.09;;;2.52;100.00
51452;BME280;37521;52.020;-1.740;2023-03-19T03:02:36;99539.84;;;2.52;100.00
51452;BME280;37521;52.020;-1.740;2023-03-19T03:05:06;99542.53;;;2.49;100.00
51452;BME280;37521;52.020;-1.740;2023-03-19T03:07:36;99541.72;;;2.45;100.00
51452;BME280;37521;52.020;-1.740;2023-03-19T03:10:05;99549.63;;;2.42;100.00
51452;BME280;37521;52.020;-1.740;2023-03-19T03:12:34;99557.44;;;2.40;100.00
51452;BME280;37521;52.020;-1.740;2023-03-19T03:15:02;99553.94;;;2.43;100.00
51452;BME280;37521;52.020;-1.740;2023-03-19T03:17:32;99557.44;;;2.42;100.00
51452;BME280;37521;52.020;-1.740;2023-03-19T03:20:00;99555.78;;;2.38;100.00
51452;BME280;37521;52.020;-1.740;2023-03-19T03:22:28;99561.13;;;2.32;100.00
51452;BME280;37521;52.020;-1.740;2023-03-19T03:24:57;99569.84;;;2.29;100.00
51452;BME280;37521;52.020;-1.740;2023-03-19T03:27:28;99562.94;;;2.27;100.00
51452;BME280;37521;52.020;-1.740;2023-03-19T03:29:57;99578.66;;;2.24;100.00
51452;BME280;37521;52.020;-1.740;2023-03-19T03:32:25;99579.59;;;2.19;100.00
51452;BME280;37521;52.020;-1.740;2023-03-19T03:34:55;99580.53;;;2.15;100.00
51452;BME280;37521;52.020;-1.740;2023-03-19T03:37:23;99584.09;;;2.11;100.00
51452;BME280;37521;52.020;-1.740;2023-03-19T03:39:51;99584.13;;;2.10;100.00
51452;BME280;37521;52.020;-1.740;2023-03-19T03:42:20;99593.72;;;2.06;100.00
51452;BME280;37521;52.020;-1.740;2023-03-19T03:44:48;99592.03;;;2.04;100.00
51452;BME280;37521;52.020;-1.740;2023-03-19T03:47:17;99597.09;;;2.11;100.00
51452;BME280;37521;52.020;-1.740;2023-03-19T03:49:45;99594.56;;;2.08;100.00
51452;BME280;37521;52.020;-1.740;2023-03-19T03:52:14;99602.38;;;2.08;100.00
51452;BME280;37521;52.020;-1.740;2023-03-19T03:54:43;99609.38;;;2.05;100.00
51452;BME280;37521;52.020;-1.740;2023-03-19T03:57:11;99605.94;;;2.03;100.00
51452;BME280;37521;52.020;-1.740;2023-03-19T03:59:39;99608.59;;;2.01;100.00
51452;BME280;37521;52.020;-1.740;2023-03-19T04:02:08;99610.34;;;2.01;100.00
51452;BME280;37521;52.020;-1.740;2023-03-19T04:04:36;99607.75;;;1.99;100.00
51452;BME280;37521;52.020;-1.740;2023-03-19T04:07:05;99611.22;;;1.98;100.00
51452;BME280;37521;52.020;-1.740;2023-03-19T04:09:40;99604.38;;;1.94;100.00
51452;BME280;37521;52.020;-1.740;2023-03-19T04:12:08;99617.44;;;1.91;100.00
51452;BME280;37521;52.020;-1.740;2023-03-19T04:14:37;99620.09;;;1.88;100.00
51452;BME280;37521;52.020;-1.740;2023-03-19T04:17:05;99632.31;;;1.84;100.00
51452;BME280;37521;52.020;-1.740;2023-03-19T04:19:34;99630.63;;;1.80;100.00
51452;BME280;37521;52.020;-1.740;2023-03-19T04:22:02;99634.94;;;1.83;100.00
51452;BME280;37521;52.020;-1.740;2023-03-19T04:24:31;99629.53;;;1.94;100.00
51452;BME280;37521;52.020;-1.740;2023-03-19T04:27:01;99632.88;;;2.00;100.00
51452;BME280;37521;52.020;-1.740;2023-03-19T04:29:29;99624.09;;;2.07;100.00
51452;BME280;37521;52.020;-1.740;2023-03-19T04:31:59;99632.75;;;2.09;100.00
51452;BME280;37521;52.020;-1.740;2023-03-19T04:34:27;99630.16;;;2.08;100.00
51452;BME280;37521;52.020;-1.740;2023-03-19T04:36:56;99637.97;;;2.06;100.00
51452;BME280;37521;52.020;-1.740;2023-03-19T04:39:24;99646.69;;;2.05;100.00
51452;BME280;37521;52.020;-1.740;2023-03-19T04:41:52;99658.88;;;2.03;100.00
51452;BME280;37521;52.020;-1.740;2023-03-19T04:44:29;99652.00;;;2.01;100.00
51452;BME280;37521;52.020;-1.740;2023-03-19T04:47:00;99654.63;;;1.98;100.00
51452;BME280;37521;52.020;-1.740;2023-03-19T04:49:34;99654.75;;;1.91;100.00
51452;BME280;37521;52.020;-1.740;2023-03-19T04:52:03;99657.31;;;1.93;100.00
51452;BME280;37521;52.020;-1.740;2023-03-19T04:54:32;99659.94;;;1.91;100.00
51452;BME280;37521;52.020;-1.740;2023-03-19T04:57:00;99667.81;;;1.87;100.00
51452;BME280;37521;52.020;-1.740;2023-03-19T04:59:35;99660.88;;;1.89;100.00
51452;BME280;37521;52.020;-1.740;2023-03-19T05:02:04;99660.00;;;1.87;100.00
51452;BME280;37521;52.020;-1.740;2023-03-19T05:04:34;99668.69;;;1.89;100.00
51452;BME280;37521;52.020;-1.740;2023-03-19T05:07:07;99660.06;;;1.84;100.00
51452;BME280;37521;52.020;-1.740;2023-03-19T05:09:36;99670.59;;;1.78;100.00
51452;BME280;37521;52.020;-1.740;2023-03-19T05:12:04;99669.84;;;1.70;100.00
51452;BME280;37521;52.020;-1.740;2023-03-19T05:14:41;99678.66;;;1.62;100.00
51452;BME280;37521;52.020;-1.740;2023-03-19T05:17:15;99678.78;;;1.55;100.00
51452;BME280;37521;52.020;-1.740;2023-03-19T05:19:51;99682.13;;;1.60;100.00
51452;BME280;37521;52.020;-1.740;2023-03-19T05:22:19;99685.56;;;1.63;100.00
51452;BME280;37521;52.020;-1.740;2023-03-19T05:24:48;99689.06;;;1.62;100.00
51452;BME280;37521;52.020;-1.740;2023-03-19T05:27:17;99690.91;;;1.54;100.00
51452;BME280;37521;52.020;-1.740;2023-03-19T05:29:53;99700.50;;;1.51;100.00
51452;BME280;37521;52.020;-1.740;2023-03-19T05:32:35;99702.31;;;1.47;100.00
51452;BME280;37521;52.020;-1.740;2023-03-19T05:35:07;99706.66;;;1.45;100.00
51452;BME280;37521;52.020;-1.740;2023-03-19T05:37:36;99704.94;;;1.44;100.00
51452;BME280;37521;52.020;-1.740;2023-03-19T05:40:05;99702.47;;;1.33;100.00
51452;BME280;37521;52.020;-1.740;2023-03-19T05:42:35;99711.22;;;1.29;100.00
51452;BME280;37521;52.020;-1.740;2023-03-19T05:45:06;99706.94;;;1.24;100.00
51452;BME280;37521;52.020;-1.740;2023-03-19T05:47:41;99710.44;;;1.20;100.00
51452;BME280;37521;52.020;-1.740;2023-03-19T05:50:09;99708.78;;;1.16;100.00
51452;BME280;37521;52.020;-1.740;2023-03-19T05:52:44;99704.47;;;1.15;100.00
51452;BME280;37521;52.020;-1.740;2023-03-19T05:55:12;99707.06;;;1.15;100.00
51452;BME280;37521;52.020;-1.740;2023-03-19T05:57:45;99714.00;;;1.13;100.00
51452;BME280;37521;52.020;-1.740;2023-03-19T06:00:20;99719.22;;;1.13;100.00
51452;BME280;37521;52.020;-1.740;2023-03-19T06:02:49;99720.91;;;1.17;100.00
51452;BME280;37521;52.020;-1.740;2023-03-19T06:05:36;99724.31;;;1.22;100.00
51452;BME280;37521;52.020;-1.740;2023-03-19T06:08:14;99724.25;;;1.25;100.00
51452;BME280;37521;52.020;-1.740;2023-03-19T06:10:56;99725.03;;;1.31;100.00
51452;BME280;37521;52.020;-1.740;2023-03-19T06:13:25;99739.72;;;1.37;100.00
51452;BME280;37521;52.020;-1.740;2023-03-19T06:15:59;99740.56;;;1.38;100.00
51452;BME280;37521;52.020;-1.740;2023-03-19T06:18:36;99747.47;;;1.40;100.00
51452;BME280;37521;52.020;-1.740;2023-03-19T06:21:08;99757.81;;;1.45;100.00
51452;BME280;37521;52.020;-1.740;2023-03-19T06:23:37;99762.00;;;1.56;100.00
51452;BME280;37521;52.020;-1.740;2023-03-19T06:26:06;99766.19;;;1.68;100.00
51452;BME280;37521;52.020;-1.740;2023-03-19T06:28:42;99770.31;;;1.80;100.00
51452;BME280;37521;52.020;-1.740;2023-03-19T06:31:15;99778.91;;;1.88;100.00
51452;BME280;37521;52.020;-1.740;2023-03-19T06:34:02;99773.56;;;1.97;100.00
51452;BME280;37521;52.020;-1.740;2023-03-19T06:36:39;99776.06;;;2.03;100.00
51452;BME280;37521;52.020;-1.740;2023-03-19T06:39:10;99783.72;;;2.12;100.00
51452;BME280;37521;52.020;-1.740;2023-03-19T06:41:38;99779.31;;;2.17;100.00
51452;BME280;37521;52.020;-1.740;2023-03-19T06:44:12;99785.31;;;2.23;100.00
51452;BME280;37521;52.020;-1.740;2023-03-19T06:46:42;99792.25;;;2.24;100.00
51452;BME280;37521;52.020;-1.740;2023-03-19T06:49:10;99783.50;;;2.28;100.00
51452;BME280;37521;52.020;-1.740;2023-03-19T06:51:38;99792.06;;;2.33;100.00
51452;BME280;37521;52.020;-1.740;2023-03-19T06:54:06;99786.88;;;2.33;100.00
51452;BME280;37521;52.020;-1.740;2023-03-19T06:56:35;99793.78;;;2.34;100.00
51452;BME280;37521;52.020;-1.740;2023-03-19T06:59:03;99791.19;;;2.35;100.00
51452;BME280;37521;52.020;-1.740;2023-03-19T07:01:31;99799.75;;;2.40;100.00
51452;BME280;37521;52.020;-1.740;2023-03-19T07:04:01;99795.38;;;2.44;100.00
51452;BME280;37521;52.020;-1.740;2023-03-19T07:06:29;99797.06;;;2.48;100.00
51452;BME280;37521;52.020;-1.740;2023-03-19T07:08:57;99800.41;;;2.53;100.00
51452;BME280;37521;52.020;-1.740;2023-03-19T07:11:25;99790.84;;;2.55;100.00
51452;BME280;37521;52.020;-1.740;2023-03-19T07:13:53;99788.28;;;2.52;100.00
51452;BME280;37521;52.020;-1.740;2023-03-19T07:16:22;99795.34;;;2.45;100.00
51452;BME280;37521;52.020;-1.740;2023-03-19T07:18:50;99799.00;;;2.34;100.00
51452;BME280;37521;52.020;-1.740;2023-03-19T07:21:19;99794.00;;;2.23;100.00
51452;BME280;37521;52.020;-1.740;2023-03-19T07:23:47;99795.81;;;2.16;100.00
51452;BME280;37521;52.020;-1.740;2023-03-19T07:26:17;99799.31;;;2.15;100.00
51452;BME280;37521;52.020;-1.740;2023-03-19T07:28:45;99804.50;;;2.17;100.00
51452;BME280;37521;52.020;-1.740;2023-03-19T07:31:14;99800.13;;;2.19;100.00
51452;BME280;37521;52.020;-1.740;2023-03-19T07:33:43;99809.66;;;2.20;100.00
51452;BME280;37521;52.020;-1.740;2023-03-19T07:36:11;99810.50;;;2.22;100.00
51452;BME280;37521;52.020;-1.740;2023-03-19T07:38:40;99812.16;;;2.26;100.00
51452;BME280;37521;52.020;-1.740;2023-03-19T07:41:08;99820.78;;;2.31;100.00
51452;BME280;37521;52.020;-1.740;2023-03-19T07:43:36;99821.53;;;2.38;100.00
51452;BME280;37521;52.020;-1.740;2023-03-19T07:46:05;99827.53;;;2.43;100.00
51452;BME280;37521;52.020;-1.740;2023-03-19T07:48:34;99834.41;;;2.47;100.00
51452;BME280;37521;52.020;-1.740;2023-03-19T07:51:02;99829.88;;;2.58;100.00
51452;BME280;37521;52.020;-1.740;2023-03-19T07:53:30;99834.19;;;2.59;100.00
51452;BME280;37521;52.020;-1.740;2023-03-19T07:56:00;99833.22;;;2.68;100.00
51452;BME280;37521;52.020;-1.740;2023-03-19T07:58:28;99827.78;;;2.79;100.00
51452;BME280;37521;52.020;-1.740;2023-03-19T08:00:56;99825.84;;;2.90;100.00
51452;BME280;37521;52.020;-1.740;2023-03-19T08:03:24;99841.28;;;3.02;100.00
51452;BME280;37521;52.020;-1.740;2023-03-19T08:05:52;99851.47;;;3.14;100.00
51452;BME280;37521;52.020;-1.740;2023-03-19T08:08:21;99848.56;;;3.31;100.00
51452;BME280;37521;52.020;-1.740;2023-03-19T08:10:49;99856.19;;;3.42;100.00
51452;BME280;37521;52.020;-1.740;2023-03-19T08:13:18;99856.00;;;3.51;100.00
51452;BME280;37521;52.020;-1.740;2023-03-19T08:15:48;99866.31;;;3.57;100.00
51452;BME280;37521;52.020;-1.740;2023-03-19T08:18:16;99860.91;;;3.66;100.00
51452;BME280;37521;52.020;-1.740;2023-03-19T08:20:45;99857.25;;;3.73;100.00
51452;BME280;37521;52.020;-1.740;2023-03-19T08:23:14;99865.94;;;3.75;100.00
51452;BME280;37521;52.020;-1.740;2023-03-19T08:25:42;99865.91;;;3.77;100.00
51452;BME280;37521;52.020;-1.740;2023-03-19T08:28:11;99878.03;;;3.79;100.00
51452;BME280;37521;52.020;-1.740;2023-03-19T08:30:40;99877.97;;;3.82;100.00
51452;BME280;37521;52.020;-1.740;2023-03-19T08:33:08;99891.84;;;3.85;100.00
51452;BME280;37521;52.020;-1.740;2023-03-19T08:35:37;99894.34;;;3.91;100.00
51452;BME280;37521;52.020;-1.740;2023-03-19T08:38:05;99902.97;;;3.96;100.00
51452;BME280;37521;52.020;-1.740;2023-03-19T08:40:34;99913.38;;;3.97;100.00
51452;BME280;37521;52.020;-1.740;2023-03-19T08:43:02;99902.97;;;3.96;100.00
51452;BME280;37521;52.020;-1.740;2023-03-19T08:45:31;99915.75;;;4.08;100.00
51452;BME280;37521;52.020;-1.740;2023-03-19T08:48:00;99924.22;;;4.19;100.00
51452;BME280;37521;52.020;-1.740;2023-03-19T08:50:29;99919.66;;;4.27;100.00
51452;BME280;37521;52.020;-1.740;2023-03-19T08:52:57;99918.63;;;4.34;100.00
51452;BME280;37521;52.020;-1.740;2023-03-19T08:55:25;99923.88;;;4.34;100.00
51452;BME280;37521;52.020;-1.740;2023-03-19T08:57:53;99930.84;;;4.35;100.00
51452;BME280;37521;52.020;-1.740;2023-03-19T09:00:22;99933.41;;;4.37;100.00
51452;BME280;37521;52.020;-1.740;2023-03-19T09:02:50;99929.03;;;4.37;100.00
51452;BME280;37521;52.020;-1.740;2023-03-19T09:05:19;99933.44;;;4.35;100.00
51452;BME280;37521;52.020;-1.740;2023-03-19T09:07:49;99930.84;;;4.35;100.00
51452;BME280;37521;52.020;-1.740;2023-03-19T09:10:18;99934.00;;;4.50;100.00
51452;BME280;37521;52.020;-1.740;2023-03-19T09:12:47;99916.09;;;4.70;100.00
51452;BME280;37521;52.020;-1.740;2023-03-19T09:15:15;99914.31;;;4.71;100.00
51452;BME280;37521;52.020;-1.740;2023-03-19T09:17:43;99917.13;;;4.63;100.00
51452;BME280;37521;52.020;-1.740;2023-03-19T09:20:12;99930.78;;;4.74;100.00
51452;BME280;37521;52.020;-1.740;2023-03-19T09:22:41;99920.88;;;4.88;100.00
51452;BME280;37521;52.020;-1.740;2023-03-19T09:25:09;99922.44;;;4.96;100.00
51452;BME280;37521;52.020;-1.740;2023-03-19T09:27:38;99922.22;;;5.05;100.00
51452;BME280;37521;52.020;-1.740;2023-03-19T09:30:07;99930.66;;;5.14;100.00
51452;BME280;37521;52.020;-1.740;2023-03-19T09:32:36;99935.50;;;5.31;100.00
51452;BME280;37521;52.020;-1.740;2023-03-19T09:35:05;99931.00;;;5.35;100.00
51452;BME280;37521;52.020;-1.740;2023-03-19T09:37:33;99933.69;;;5.33;100.00
51452;BME280;37521;52.020;-1.740;2023-03-19T09:40:03;99947.09;;;5.54;100.00
51452;BME280;37521;52.020;-1.740;2023-03-19T09:42:46;99945.72;;;5.73;100.00
51452;BME280;37521;52.020;-1.740;2023-03-19T09:45:18;99943.38;;;5.95;100.00
51452;BME280;37521;52.020;-1.740;2023-03-19T09:47:49;99953.66;;;6.03;100.00
51452;BME280;37521;52.020;-1.740;2023-03-19T09:50:20;99951.31;;;6.23;100.00
51452;BME280;37521;52.020;-1.740;2023-03-19T09:52:54;99945.13;;;6.25;100.00
51452;BME280;37521;52.020;-1.740;2023-03-19T09:55:29;99963.47;;;6.25;100.00
51452;BME280;37521;52.020;-1.740;2023-03-19T09:57:59;99956.59;;;6.21;100.00
51452;BME280;37521;52.020;-1.740;2023-03-19T10:00:31;99964.69;;;6.14;100.00
51452;BME280;37521;52.020;-1.740;2023-03-19T10:03:05;99957.84;;;6.08;100.00
51452;BME280;37521;52.020;-1.740;2023-03-19T10:05:43;99966.88;;;5.98;100.00
51452;BME280;37521;52.020;-1.740;2023-03-19T10:08:33;99975.72;;;5.94;100.00
51452;BME280;37521;52.020;-1.740;2023-03-19T10:11:17;99974.91;;;5.92;100.00
51452;BME280;37521;52.020;-1.740;2023-03-19T10:13:58;99975.16;;;6.14;100.00
51452;BME280;37521;52.020;-1.740;2023-03-19T10:16:29;99976.78;;;6.77;100.00
51452;BME280;37521;52.020;-1.740;2023-03-19T10:18:59;99974.88;;;7.35;100.00
51452;BME280;37521;52.020;-1.740;2023-03-19T10:21:33;99976.63;;;7.36;100.00
51452;BME280;37521;52.020;-1.740;2023-03-19T10:24:08;99981.81;;;7.11;100.00
51452;BME280;37521;52.020;-1.740;2023-03-19T10:26:40;99974.47;;;6.94;100.00
51452;BME280;37521;52.020;-1.740;2023-03-19T10:29:10;99975.72;;;6.82;100.00
51452;BME280;37521;52.020;-1.740;2023-03-19T10:31:44;99969.34;;;6.62;100.00
51452;BME280;37521;52.020;-1.740;2023-03-19T10:34:24;99977.13;;;6.37;100.00
51452;BME280;37521;52.020;-1.740;2023-03-19T10:36:58;99974.34;;;6.12;100.00
51452;BME280;37521;52.020;-1.740;2023-03-19T10:39:27;99986.00;;;6.01;100.00
51452;BME280;37521;52.020;-1.740;2023-03-19T10:42:06;99982.66;;;5.96;100.00
51452;BME280;37521;52.020;-1.740;2023-03-19T10:44:38;99990.72;;;5.87;100.00
51452;BME280;37521;52.020;-1.740;2023-03-19T10:47:10;99986.66;;;5.77;100.00
51452;BME280;37521;52.020;-1.740;2023-03-19T10:49:39;99984.94;;;5.76;100.00
51452;BME280;37521;52.020;-1.740;2023-03-19T10:52:17;99984.84;;;5.79;100.00
51452;BME280;37521;52.020;-1.740;2023-03-19T10:54:47;99986.56;;;5.80;100.00
51452;BME280;37521;52.020;-1.740;2023-03-19T10:57:25;100000.41;;;5.85;100.00
51452;BME280;37521;52.020;-1.740;2023-03-19T10:59:54;100005.25;;;6.00;100.00
51452;BME280;37521;52.020;-1.740;2023-03-19T11:02:24;100003.19;;;6.12;100.00
51452;BME280;37521;52.020;-1.740;2023-03-19T11:05:21;100006.44;;;6.20;100.00
51452;BME280;37521;52.020;-1.740;2023-03-19T11:07:54;100014.94;;;6.28;100.00
51452;BME280;37521;52.020;-1.740;2023-03-19T11:10:25;100020.19;;;6.28;100.00
51452;BME280;37521;52.020;-1.740;2023-03-19T11:12:58;100027.03;;;6.34;100.00
51452;BME280;37521;52.020;-1.740;2023-03-19T11:15:29;100009.19;;;6.46;100.00
51452;BME280;37521;52.020;-1.740;2023-03-19T11:18:07;100011.19;;;6.66;100.00
51452;BME280;37521;52.020;-1.740;2023-03-19T11:20:37;100013.59;;;6.74;100.00
51452;BME280;37521;52.020;-1.740;2023-03-19T11:23:10;100020.56;;;6.75;100.00
51452;BME280;37521;52.020;-1.740;2023-03-19T11:25:41;100019.63;;;6.77;100.00
51452;BME280;37521;52.020;-1.740;2023-03-19T11:28:13;100024.81;;;6.79;100.00
51452;BME280;37521;52.020;-1.740;2023-03-19T11:30:52;100018.84;;;6.74;100.00
51452;BME280;37521;52.020;-1.740;2023-03-19T11:33:34;100007.84;;;6.63;100.00
51452;BME280;37521;52.020;-1.740;2023-03-19T11:36:11;100020.03;;;6.64;100.00
51452;BME280;37521;52.020;-1.740;2023-03-19T11:38:51;100023.47;;;6.66;100.00
51452;BME280;37521;52.020;-1.740;2023-03-19T11:41:30;100028.03;;;6.59;100.00
51452;BME280;37521;52.020;-1.740;2023-03-19T11:44:09;100024.84;;;6.49;100.00
51452;BME280;37521;52.020;-1.740;2023-03-19T11:46:43;100023.31;;;6.42;100.00
51452;BME280;37521;52.020;-1.740;2023-03-19T11:49:32;100025.19;;;6.37;100.00
51452;BME280;37521;52.020;-1.740;2023-03-19T11:52:11;100027.06;;;6.32;100.00
51452;BME280;37521;52.020;-1.740;2023-03-19T11:54:48;100019.34;;;6.27;100.00
51452;BME280;37521;52.020;-1.740;2023-03-19T11:57:31;100012.25;;;6.31;100.00
51452;BME280;37521;52.020;-1.740;2023-03-19T12:00:18;100011.91;;;6.42;100.00
51452;BME280;37521;52.020;-1.740;2023-03-19T12:03:07;100011.00;;;6.44;100.00
51452;BME280;37521;52.020;-1.740;2023-03-19T12:05:50;100008.25;;;6.49;100.00
51452;BME280;37521;52.020;-1.740;2023-03-19T12:08:29;100010.63;;;6.57;100.00
51452;BME280;37521;52.020;-1.740;2023-03-19T12:11:06;100002.72;;;6.58;100.00
51452;BME280;37521;52.020;-1.740;2023-03-19T12:13:46;100006.81;;;6.67;100.00
51452;BME280;37521;52.020;-1.740;2023-03-19T12:16:25;100004.00;;;6.73;100.00
51452;BME280;37521;52.020;-1.740;2023-03-19T12:19:07;100004.63;;;6.81;100.00
51452;BME280;37521;52.020;-1.740;2023-03-19T12:21:45;100004.53;;;6.84;100.00
51452;BME280;37521;52.020;-1.740;2023-03-19T12:24:21;100013.13;;;6.89;100.00
51452;BME280;37521;52.020;-1.740;2023-03-19T12:27:00;99999.78;;;6.97;100.00
51452;BME280;37521;52.020;-1.740;2023-03-19T12:29:39;100004.97;;;6.98;100.00
51452;BME280;37521;52.020;-1.740;2023-03-19T12:32:20;100001.53;;;6.96;100.00
51452;BME280;37521;52.020;-1.740;2023-03-19T12:34:55;100005.28;;;6.89;100.00
51452;BME280;37521;52.020;-1.740;2023-03-19T12:37:28;100009.06;;;6.79;100.00
51452;BME280;37521;52.020;-1.740;2023-03-19T12:40:10;100008.63;;;6.65;100.00
51452;BME280;37521;52.020;-1.740;2023-03-19T12:42:41;100009.63;;;6.61;100.00
51452;BME280;37521;52.020;-1.740;2023-03-19T12:45:20;100013.78;;;6.68;100.00
51452;BME280;37521;52.020;-1.740;2023-03-19T12:47:57;100013.56;;;6.75;100.00
51452;BME280;37521;52.020;-1.740;2023-03-19T12:50:30;100016.81;;;6.83;100.00
51452;BME280;37521;52.020;-1.740;2023-03-19T12:53:06;100023.59;;;6.91;100.00
51452;BME280;37521;52.020;-1.740;2023-03-19T12:55:40;100025.16;;;6.96;100.00
51452;BME280;37521;52.020;-1.740;2023-03-19T12:58:17;100017.09;;;7.02;100.00
51452;BME280;37521;52.020;-1.740;2023-03-19T13:00:51;100021.31;;;7.06;100.00
51452;BME280;37521;52.020;-1.740;2023-03-19T13:03:24;100017.97;;;7.01;100.00
51452;BME280;37521;52.020;-1.740;2023-03-19T13:05:58;100017.31;;;6.95;100.00
51452;BME280;37521;52.020;-1.740;2023-03-19T13:08:30;100014.75;;;6.93;100.00
51452;BME280;37521;52.020;-1.740;2023-03-19T13:11:04;100011.03;;;7.00;100.00